Time;durP1;ratioP1;P1;durP2;ratioP2;P2;SDS_P1;SDS_P2;PMS_P1;PMS_P2;Temp;Humidity;BMP_temperature;BMP_pressure;BME280_temperature;BME280_humidity;BME280_pressure;Samples;Min_cycle;Max_cycle;Signal;HPM_P1;HPM_P2
2023/03/06 00:01:26;;;;;;;28.92;12.25;;;;;;;;;;5006814;28;20490;-48
2023/03/06 00:03:52;;;;;;;31.95;13.38;;;;;;;;;;5006520;28;20074;-48
2023/03/06 00:06:17;;;;;;;31.60;12.18;;;;;;;;;;5006568;28;20108;-47
2023/03/06 00:08:42;;;;;;;33.20;12.07;;;;;;;;;;5005592;28;20037;-50
2023/03/06 00:11:08;;;;;;;37.78;12.50;;;;;;;;;;5006846;28;20038;-48
2023/03/06 00:13:33;;;;;;;34.97;13.73;;;;;;;;;;5005874;28;20153;-48
2023/03/06 00:15:59;;;;;;;29.83;12.65;;;;;;;;;;5005937;28;20045;-47
2023/03/06 00:18:25;;;;;;;34.70;13.15;;;;;;;;;;5006028;28;20037;-47
2023/03/06 00:20:50;;;;;;;32.97;12.98;;;;;;;;;;5006852;28;20045;-47
2023/03/06 00:23:16;;;;;;;35.05;12.15;;;;;;;;;;4998286;28;20672;-45
2023/03/06 00:25:43;;;;;;;31.92;11.95;;;;;;;;;;4985462;28;20124;-48
2023/03/06 00:28:08;;;;;;;29.33;10.88;;;;;;;;;;4987036;28;20042;-47
2023/03/06 00:30:34;;;;;;;32.15;12.45;;;;;;;;;;4993663;28;20131;-47
2023/03/06 00:32:59;;;;;;;31.58;12.20;;;;;;;;;;5001804;28;20022;-48
2023/03/06 00:35:24;;;;;;;30.98;11.85;;;;;;;;;;5005021;28;20040;-47
2023/03/06 00:37:50;;;;;;;31.02;11.98;;;;;;;;;;4993917;28;20042;-50
2023/03/06 00:40:18;;;;;;;29.13;12.32;;;;;;;;;;4986010;28;20061;-48
2023/03/06 00:42:44;;;;;;;34.45;11.45;;;;;;;;;;4991855;28;20500;-48
2023/03/06 00:45:10;;;;;;;35.53;12.82;;;;;;;;;;5005756;28;20026;-48
2023/03/06 00:47:35;;;;;;;28.13;11.93;;;;;;;;;;5005739;28;20040;-45
2023/03/06 00:50:01;;;;;;;38.10;12.35;;;;;;;;;;5005596;28;20041;-47
2023/03/06 00:52:26;;;;;;;31.90;12.23;;;;;;;;;;4991883;28;20045;-49
2023/03/06 00:54:51;;;;;;;29.75;12.02;;;;;;;;;;5004907;28;20038;-47
2023/03/06 00:57:17;;;;;;;33.60;11.07;;;;;;;;;;5005522;28;20029;-48
2023/03/06 00:59:42;;;;;;;35.22;11.60;;;;;;;;;;5006560;28;20030;-49
2023/03/06 01:02:07;;;;;;;29.58;11.65;;;;;;;;;;5000517;28;20034;-47
2023/03/06 01:04:33;;;;;;;36.30;13.18;;;;;;;;;;5001864;28;20045;-45
2023/03/06 01:06:58;;;;;;;32.92;12.73;;;;;;;;;;5004512;28;20034;-47
2023/03/06 01:09:24;;;;;;;31.63;12.90;;;;;;;;;;5003355;28;20483;-47
2023/03/06 01:11:49;;;;;;;33.30;12.55;;;;;;;;;;5006202;28;20034;-46
2023/03/06 01:14:17;;;;;;;31.25;12.15;;;;;;;;;;5002869;28;20033;-46
2023/03/06 01:16:43;;;;;;;31.77;13.00;;;;;;;;;;4985622;28;20056;-48
2023/03/06 01:19:08;;;;;;;31.15;12.40;;;;;;;;;;4990168;28;20042;-46
2023/03/06 01:21:34;;;;;;;35.05;14.00;;;;;;;;;;5003045;28;20117;-46
2023/03/06 01:23:59;;;;;;;32.05;12.38;;;;;;;;;;5001298;28;20026;-47
2023/03/06 01:26:24;;;;;;;34.35;12.65;;;;;;;;;;5004877;28;20025;-47
2023/03/06 01:28:50;;;;;;;29.10;11.77;;;;;;;;;;5005890;28;20061;-47
2023/03/06 01:31:15;;;;;;;30.27;13.32;;;;;;;;;;5003931;28;20057;-48
2023/03/06 01:33:40;;;;;;;34.50;12.55;;;;;;;;;;4999153;28;20126;-47
2023/03/06 01:36:07;;;;;;;28.75;12.98;;;;;;;;;;5003037;28;20030;-49
2023/03/06 01:38:34;;;;;;;34.20;13.05;;;;;;;;;;5019734;28;20033;-50
2023/03/06 01:41:02;;;;;;;30.55;12.40;;;;;;;;;;5038750;28;20033;-47
2023/03/06 01:43:30;;;;;;;29.77;10.95;;;;;;;;;;5044887;28;20040;-46
2023/03/06 01:46:24;;;;;;;29.20;11.57;;;;;;;;;;5045105;28;20048;-48
2023/03/06 01:48:54;;;;;;;32.88;12.40;;;;;;;;;;5036173;28;20049;-46
2023/03/06 01:51:21;;;;;;;32.22;12.00;;;;;;;;;;5025352;28;20034;-47
2023/03/06 01:53:48;;;;;;;33.33;11.98;;;;;;;;;;5025540;28;20518;-45
2023/03/06 01:56:14;;;;;;;34.92;12.23;;;;;;;;;;5013019;28;20681;-46
2023/03/06 01:58:45;;;;;;;33.38;10.90;;;;;;;;;;4985445;28;20117;-45
2023/03/06 02:01:11;;;;;;;31.77;11.70;;;;;;;;;;4984688;28;20038;-46
2023/03/06 02:03:38;;;;;;;29.98;11.30;;;;;;;;;;5002581;28;20038;-46
2023/03/06 02:06:04;;;;;;;30.77;11.10;;;;;;;;;;4995764;28;20581;-48
2023/03/06 02:08:30;;;;;;;31.38;11.40;;;;;;;;;;5004784;28;20539;-46
2023/03/06 02:11:13;;;;;;;34.03;10.77;;;;;;;;;;5020878;28;20064;-48
2023/03/06 02:13:40;;;;;;;27.70;10.07;;;;;;;;;;5024977;28;20129;-47
2023/03/06 02:16:08;;;;;;;30.35;10.93;;;;;;;;;;5013942;28;21183;-49
2023/03/06 02:18:34;;;;;;;23.45;9.80;;;;;;;;;;4999699;28;20115;-45
2023/03/06 02:21:07;;;;;;;27.48;11.43;;;;;;;;;;4999977;28;20203;-48
2023/03/06 02:23:43;;;;;;;36.30;10.60;;;;;;;;;;5006949;28;20033;-46
2023/03/06 02:26:10;;;;;;;22.13;8.80;;;;;;;;;;5025826;28;20106;-46
2023/03/06 02:28:35;;;;;;;28.58;11.43;;;;;;;;;;5028583;28;20041;-49
2023/03/06 02:31:01;;;;;;;24.83;9.20;;;;;;;;;;5025618;28;20037;-47
2023/03/06 02:33:28;;;;;;;24.42;9.68;;;;;;;;;;5025634;28;20087;-45
2023/03/06 02:35:59;;;;;;;25.08;10.38;;;;;;;;;;5027045;28;20160;-49
2023/03/06 02:38:36;;;;;;;24.88;9.63;;;;;;;;;;5024866;28;20577;-45
2023/03/06 02:41:05;;;;;;;22.58;9.15;;;;;;;;;;5013752;28;20566;-51
2023/03/06 02:43:34;;;;;;;27.05;10.23;;;;;;;;;;5029670;28;20078;-46
2023/03/06 02:45:59;;;;;;;29.98;11.00;;;;;;;;;;5021938;28;20045;-49
2023/03/06 02:48:24;;;;;;;29.38;9.68;;;;;;;;;;5025503;28;20095;-48
2023/03/06 02:50:50;;;;;;;30.55;9.93;;;;;;;;;;5027773;28;20078;-48
2023/03/06 02:53:17;;;;;;;27.98;10.05;;;;;;;;;;5027526;28;20057;-45
2023/03/06 02:55:42;;;;;;;26.27;9.63;;;;;;;;;;5027179;28;20064;-47
2023/03/06 02:58:08;;;;;;;24.67;9.32;;;;;;;;;;5026876;28;20069;-49
2023/03/06 03:00:33;;;;;;;26.10;9.40;;;;;;;;;;5015599;28;20046;-45
2023/03/06 03:02:59;;;;;;;30.35;10.63;;;;;;;;;;5027871;28;20445;-47
2023/03/06 03:05:25;;;;;;;24.70;9.75;;;;;;;;;;5027342;28;20392;-48
2023/03/06 03:07:50;;;;;;;27.17;10.10;;;;;;;;;;5027086;28;20413;-48
2023/03/06 03:10:16;;;;;;;25.92;8.43;;;;;;;;;;5026592;28;20045;-47
2023/03/06 03:12:41;;;;;;;26.33;10.18;;;;;;;;;;5023965;28;20801;-49
2023/03/06 03:15:08;;;;;;;23.65;8.35;;;;;;;;;;5016728;28;20021;-46
2023/03/06 03:17:40;;;;;;;24.55;9.60;;;;;;;;;;5026915;28;20524;-47
2023/03/06 03:20:08;;;;;;;29.00;10.02;;;;;;;;;;5039109;28;20036;-46
2023/03/06 03:22:33;;;;;;;26.80;9.40;;;;;;;;;;5046274;28;20047;-50
2023/03/06 03:24:59;;;;;;;26.90;9.18;;;;;;;;;;5038978;28;20041;-46
2023/03/06 03:27:24;;;;;;;20.80;8.98;;;;;;;;;;5026401;28;20238;-46
2023/03/06 03:29:49;;;;;;;22.75;8.85;;;;;;;;;;5027213;28;20479;-46
2023/03/06 03:32:15;;;;;;;21.80;9.60;;;;;;;;;;5026361;28;20033;-46
2023/03/06 03:34:40;;;;;;;26.15;10.45;;;;;;;;;;5026633;28;20186;-49
2023/03/06 03:37:05;;;;;;;27.20;9.57;;;;;;;;;;5022635;28;20414;-46
2023/03/06 03:39:31;;;;;;;22.92;10.05;;;;;;;;;;5016230;28;20041;-46
2023/03/06 03:41:56;;;;;;;25.45;9.02;;;;;;;;;;5009348;28;20085;-46
2023/03/06 03:44:21;;;;;;;22.13;8.70;;;;;;;;;;5006724;28;20060;-48
2023/03/06 03:46:47;;;;;;;24.67;9.70;;;;;;;;;;5006534;28;20562;-46
2023/03/06 03:49:12;;;;;;;27.40;10.00;;;;;;;;;;5006473;28;20042;-45
2023/03/06 03:51:38;;;;;;;28.25;10.82;;;;;;;;;;5006718;28;20053;-48
2023/03/06 03:54:04;;;;;;;25.50;10.85;;;;;;;;;;5013489;28;20132;-46
2023/03/06 03:56:30;;;;;;;28.83;10.52;;;;;;;;;;5020111;28;20026;-47
2023/03/06 03:58:55;;;;;;;29.73;10.52;;;;;;;;;;5023946;28;20048;-47
2023/03/06 04:01:21;;;;;;;28.17;10.52;;;;;;;;;;5020957;28;20038;-47
2023/03/06 04:03:46;;;;;;;28.85;10.70;;;;;;;;;;5025812;28;20116;-48
2023/03/06 04:06:11;;;;;;;50.00;12.00;;;;;;;;;;5024882;28;20048;-48
2023/03/06 04:08:36;;;;;;;31.90;11.07;;;;;;;;;;5023154;28;20478;-49
2023/03/06 04:11:02;;;;;;;27.02;10.65;;;;;;;;;;5025140;28;20754;-46
2023/03/06 04:13:28;;;;;;;25.48;9.40;;;;;;;;;;5026355;28;20041;-48
2023/03/06 04:15:54;;;;;;;32.25;10.65;;;;;;;;;;5031843;28;20422;-47
2023/03/06 04:18:20;;;;;;;27.65;10.82;;;;;;;;;;5045935;28;20033;-47
2023/03/06 04:20:47;;;;;;;25.77;10.57;;;;;;;;;;5046105;28;20031;-46
2023/03/06 04:23:12;;;;;;;31.02;11.10;;;;;;;;;;5025268;28;20630;-47
2023/03/06 04:25:39;;;;;;;27.85;11.15;;;;;;;;;;5024347;28;20140;-45
2023/03/06 04:28:05;;;;;;;26.50;9.43;;;;;;;;;;5024734;28;20602;-48
2023/03/06 04:30:31;;;;;;;29.13;11.05;;;;;;;;;;5025760;28;20117;-47
2023/03/06 04:32:57;;;;;;;30.67;10.93;;;;;;;;;;5024972;28;20525;-48
2023/03/06 04:35:22;;;;;;;29.52;10.40;;;;;;;;;;5020134;28;20045;-46
2023/03/06 04:37:47;;;;;;;30.27;11.20;;;;;;;;;;5019725;28;20052;-50
2023/03/06 04:40:39;;;;;;;31.92;11.13;;;;;;;;;;5023983;28;20087;-49
2023/03/06 04:43:04;;;;;;;29.80;9.98;;;;;;;;;;5022160;28;20129;-47
2023/03/06 04:45:31;;;;;;;34.42;10.80;;;;;;;;;;5024150;28;20116;-46
2023/03/06 04:47:57;;;;;;;28.63;10.80;;;;;;;;;;5024438;28;20025;-45
2023/03/06 04:50:23;;;;;;;31.70;11.43;;;;;;;;;;5018104;28;20411;-46
2023/03/06 04:52:49;;;;;;;29.45;10.45;;;;;;;;;;5031070;28;20045;-46
2023/03/06 04:55:16;;;;;;;31.00;10.70;;;;;;;;;;5044567;28;20025;-46
2023/03/06 04:57:42;;;;;;;35.05;11.13;;;;;;;;;;5042553;28;20521;-48
2023/03/06 05:00:12;;;;;;;28.73;9.50;;;;;;;;;;5019418;28;20052;-46
2023/03/06 05:02:38;;;;;;;29.23;10.32;;;;;;;;;;5021704;28;20025;-47
2023/03/06 05:05:04;;;;;;;27.25;9.48;;;;;;;;;;5022336;28;20026;-46
2023/03/06 05:07:29;;;;;;;28.40;10.30;;;;;;;;;;5024780;28;20033;-45
2023/03/06 05:09:55;;;;;;;27.15;10.40;;;;;;;;;;5025568;28;20040;-47
2023/03/06 05:12:20;;;;;;;31.55;11.23;;;;;;;;;;5022487;28;20041;-45
2023/03/06 05:14:46;;;;;;;28.10;10.57;;;;;;;;;;5023602;28;20028;-48
2023/03/06 05:17:11;;;;;;;27.65;10.18;;;;;;;;;;5020384;28;20045;-46
2023/03/06 05:19:36;;;;;;;24.33;9.75;;;;;;;;;;5019769;28;20450;-50
2023/03/06 05:22:02;;;;;;;22.20;9.10;;;;;;;;;;5004624;28;20681;-49
2023/03/06 05:24:27;;;;;;;24.77;8.93;;;;;;;;;;5005269;28;20037;-49
2023/03/06 05:26:52;;;;;;;29.77;9.35;;;;;;;;;;5011350;28;20010;-46
2023/03/06 05:29:18;;;;;;;27.70;10.73;;;;;;;;;;5021411;28;20065;-48
2023/03/06 05:31:43;;;;;;;29.35;10.07;;;;;;;;;;5025267;28;20060;-48
2023/03/06 05:34:12;;;;;;;26.83;10.88;;;;;;;;;;5024811;28;20041;-46
2023/03/06 05:36:38;;;;;;;22.48;9.80;;;;;;;;;;5025562;28;20049;-48
2023/03/06 05:39:03;;;;;;;27.98;11.13;;;;;;;;;;5024801;28;20429;-48
2023/03/06 05:41:28;;;;;;;42.53;10.80;;;;;;;;;;5023935;28;20053;-47
2023/03/06 05:43:55;;;;;;;25.65;11.45;;;;;;;;;;5024216;28;20041;-46
2023/03/06 05:46:21;;;;;;;27.65;10.40;;;;;;;;;;5024963;28;20030;-46
2023/03/06 05:48:46;;;;;;;27.63;11.75;;;;;;;;;;5025024;28;20091;-47
2023/03/06 05:51:12;;;;;;;33.58;10.88;;;;;;;;;;5022229;28;20126;-48
2023/03/06 05:53:37;;;;;;;28.30;11.68;;;;;;;;;;5024522;28;20029;-46
2023/03/06 05:56:05;;;;;;;32.20;11.30;;;;;;;;;;5022584;28;20037;-47
2023/03/06 05:58:32;;;;;;;34.38;11.00;;;;;;;;;;5026823;28;20033;-50
2023/03/06 06:00:57;;;;;;;24.13;10.30;;;;;;;;;;5025828;28;20669;-45
2023/03/06 06:03:23;;;;;;;27.55;10.43;;;;;;;;;;5048317;28;20559;-47
2023/03/06 06:05:49;;;;;;;34.47;10.50;;;;;;;;;;5047999;28;20509;-47
2023/03/06 06:08:15;;;;;;;23.80;9.60;;;;;;;;;;5046036;28;20116;-46
2023/03/06 06:10:40;;;;;;;26.80;10.80;;;;;;;;;;5026147;28;20124;-48
2023/03/06 06:13:06;;;;;;;29.48;11.10;;;;;;;;;;5028288;28;20052;-49
2023/03/06 06:15:32;;;;;;;26.58;11.00;;;;;;;;;;5027555;28;20030;-45
2023/03/06 06:17:57;;;;;;;29.73;11.63;;;;;;;;;;5028120;28;20048;-46
2023/03/06 06:20:23;;;;;;;31.10;11.70;;;;;;;;;;5019414;28;20068;-49
2023/03/06 06:22:49;;;;;;;33.83;12.43;;;;;;;;;;5011193;28;20096;-47
2023/03/06 06:25:15;;;;;;;31.90;11.18;;;;;;;;;;5033186;28;20033;-49
2023/03/06 06:27:40;;;;;;;34.03;11.80;;;;;;;;;;5047249;28;20864;-47
2023/03/06 06:30:10;;;;;;;26.52;10.88;;;;;;;;;;5048015;28;20061;-47
2023/03/06 06:32:36;;;;;;;31.13;10.85;;;;;;;;;;5047351;28;20040;-48
2023/03/06 06:35:02;;;;;;;28.10;11.68;;;;;;;;;;5047996;28;20047;-50
2023/03/06 06:37:28;;;;;;;32.60;11.68;;;;;;;;;;5031184;28;20040;-47
2023/03/06 06:39:53;;;;;;;32.50;11.60;;;;;;;;;;5025553;28;20470;-47
2023/03/06 06:42:18;;;;;;;37.28;10.77;;;;;;;;;;5021579;28;20691;-49
2023/03/06 06:44:44;;;;;;;31.02;10.55;;;;;;;;;;5024397;28;20031;-49
2023/03/06 06:47:09;;;;;;;33.88;11.85;;;;;;;;;;5024104;28;20537;-48
2023/03/06 06:49:35;;;;;;;35.08;12.60;;;;;;;;;;5023142;28;20056;-48
2023/03/06 06:52:00;;;;;;;31.45;11.63;;;;;;;;;;5027065;28;20579;-47
2023/03/06 06:54:26;;;;;;;29.42;12.20;;;;;;;;;;5024967;28;20071;-48
2023/03/06 06:56:51;;;;;;;34.10;12.27;;;;;;;;;;5028122;28;20046;-46
2023/03/06 06:59:16;;;;;;;27.75;10.98;;;;;;;;;;5021755;28;20116;-47
2023/03/06 07:01:42;;;;;;;28.15;10.27;;;;;;;;;;5020733;28;20045;-49
2023/03/06 07:04:10;;;;;;;35.65;12.93;;;;;;;;;;5020774;28;20068;-46
2023/03/06 07:06:36;;;;;;;31.30;11.75;;;;;;;;;;5012959;28;20034;-46
2023/03/06 07:09:01;;;;;;;33.72;12.10;;;;;;;;;;5017531;28;20017;-45
2023/03/06 07:11:26;;;;;;;31.67;11.85;;;;;;;;;;5007120;28;20030;-48
2023/03/06 07:13:52;;;;;;;32.80;12.13;;;;;;;;;;5006757;28;20053;-46
2023/03/06 07:16:17;;;;;;;31.83;11.98;;;;;;;;;;5023534;28;20096;-46
2023/03/06 07:18:43;;;;;;;35.97;13.38;;;;;;;;;;5028932;28;20479;-48
2023/03/06 07:21:08;;;;;;;40.72;12.25;;;;;;;;;;5046991;28;20024;-50
2023/03/06 07:23:34;;;;;;;33.10;13.40;;;;;;;;;;5047802;28;20417;-47
2023/03/06 07:26:00;;;;;;;46.60;12.65;;;;;;;;;;5046438;28;20040;-50
2023/03/06 07:28:25;;;;;;;32.97;11.10;;;;;;;;;;5047078;28;20237;-48
2023/03/06 07:30:51;;;;;;;37.67;13.50;;;;;;;;;;5027784;28;20040;-47
2023/03/06 07:33:16;;;;;;;33.55;12.70;;;;;;;;;;5017718;28;20049;-48
2023/03/06 07:35:43;;;;;;;32.35;11.98;;;;;;;;;;5025873;28;20109;-46
2023/03/06 07:38:08;;;;;;;39.53;12.52;;;;;;;;;;5026654;28;20507;-50
2023/03/06 07:40:34;;;;;;;40.50;12.00;;;;;;;;;;5026569;28;20041;-47
2023/03/06 07:42:59;;;;;;;40.78;12.32;;;;;;;;;;5022691;28;20118;-47
2023/03/06 07:45:25;;;;;;;43.78;12.75;;;;;;;;;;5021215;28;20049;-46
2023/03/06 07:47:52;;;;;;;34.60;13.50;;;;;;;;;;5022965;28;20049;-47
2023/03/06 07:50:18;;;;;;;29.98;12.57;;;;;;;;;;5011968;28;20369;-48
2023/03/06 07:52:43;;;;;;;36.38;12.43;;;;;;;;;;5018916;28;20078;-47
2023/03/06 07:55:09;;;;;;;32.97;11.73;;;;;;;;;;5021024;28;20091;-49
2023/03/06 07:57:36;;;;;;;38.42;14.63;;;;;;;;;;5026167;28;20037;-46
2023/03/06 08:00:06;;;;;;;38.88;13.50;;;;;;;;;;5022057;28;20430;-47
2023/03/06 08:02:32;;;;;;;32.38;13.25;;;;;;;;;;5022978;28;20056;-46
2023/03/06 08:04:57;;;;;;;32.92;13.25;;;;;;;;;;5026503;28;20119;-47
2023/03/06 08:07:22;;;;;;;32.97;12.32;;;;;;;;;;5026095;28;20026;-46
2023/03/06 08:09:48;;;;;;;34.45;11.27;;;;;;;;;;5026022;28;20299;-47
2023/03/06 08:12:13;;;;;;;35.78;13.50;;;;;;;;;;5026206;28;20025;-49
2023/03/06 08:14:39;;;;;;;34.95;12.75;;;;;;;;;;5020918;28;20032;-46
2023/03/06 08:17:04;;;;;;;40.15;11.98;;;;;;;;;;5020395;28;20570;-45
2023/03/06 08:19:29;;;;;;;33.42;11.63;;;;;;;;;;5025200;28;20686;-48
2023/03/06 08:21:55;;;;;;;40.03;13.50;;;;;;;;;;5045972;28;20113;-47
2023/03/06 08:24:20;;;;;;;33.13;13.80;;;;;;;;;;5017502;28;20545;-45
2023/03/06 08:26:46;;;;;;;37.28;13.57;;;;;;;;;;5024915;28;20029;-47
2023/03/06 08:29:12;;;;;;;38.40;14.00;;;;;;;;;;5023658;28;20128;-48
2023/03/06 08:31:40;;;;;;;30.02;12.10;;;;;;;;;;5024614;28;20033;-47
2023/03/06 08:34:08;;;;;;;40.05;14.60;;;;;;;;;;5024818;28;20037;-49
2023/03/06 08:36:34;;;;;;;35.33;12.70;;;;;;;;;;5024760;28;20470;-46
2023/03/06 08:39:00;;;;;;;39.03;15.50;;;;;;;;;;5018587;28;20079;-48
2023/03/06 08:41:26;;;;;;;34.20;13.52;;;;;;;;;;5024579;28;20018;-47
2023/03/06 08:43:51;;;;;;;39.00;14.73;;;;;;;;;;5024619;28;20040;-47
2023/03/06 08:46:18;;;;;;;34.42;13.27;;;;;;;;;;5024442;28;20469;-48
2023/03/06 08:48:46;;;;;;;46.13;16.17;;;;;;;;;;5025649;28;20037;-50
2023/03/06 08:51:12;;;;;;;40.45;14.50;;;;;;;;;;5024734;28;20031;-49
2023/03/06 08:53:37;;;;;;;48.97;16.75;;;;;;;;;;5024218;28;20374;-46
2023/03/06 08:56:03;;;;;;;40.30;13.65;;;;;;;;;;5027159;28;20021;-48
2023/03/06 08:58:29;;;;;;;39.63;15.18;;;;;;;;;;5028820;28;20037;-47
2023/03/06 09:00:55;;;;;;;37.03;13.32;;;;;;;;;;5044685;28;20029;-46
2023/03/06 09:03:22;;;;;;;39.33;13.68;;;;;;;;;;5044490;28;20556;-45
2023/03/06 09:05:48;;;;;;;41.90;14.43;;;;;;;;;;5044369;28;20086;-51
2023/03/06 09:08:13;;;;;;;42.75;14.10;;;;;;;;;;5044591;28;20033;-48
2023/03/06 09:10:38;;;;;;;41.83;14.82;;;;;;;;;;5023108;28;20029;-49
2023/03/06 09:13:04;;;;;;;43.60;14.18;;;;;;;;;;5023813;28;20033;-47
2023/03/06 09:15:29;;;;;;;37.10;13.70;;;;;;;;;;5025102;28;20060;-45
2023/03/06 09:17:54;;;;;;;34.70;12.27;;;;;;;;;;5022061;28;20034;-47
2023/03/06 09:20:20;;;;;;;49.38;15.52;;;;;;;;;;5025200;28;20041;-46
2023/03/06 09:22:45;;;;;;;41.97;14.77;;;;;;;;;;5037737;28;20116;-47
2023/03/06 09:25:19;;;;;;;42.05;15.13;;;;;;;;;;5016148;28;20088;-48
2023/03/06 09:27:44;;;;;;;;;;;;;;;;;;5025718;28;20034;-47
2023/03/06 09:30:11;;;;;;;37.00;12.48;;;;;;;;;;5024539;28;20055;-45
2023/03/06 09:32:36;;;;;;;47.22;15.27;;;;;;;;;;5026665;28;20730;-47
2023/03/06 09:35:02;;;;;;;52.90;15.55;;;;;;;;;;5023114;28;20025;-50
2023/03/06 09:37:27;;;;;;;42.08;14.80;;;;;;;;;;5016481;28;20044;-49
2023/03/06 09:39:52;;;;;;;47.88;15.73;;;;;;;;;;5014322;28;20038;-48
2023/03/06 09:42:22;;;;;;;41.75;15.45;;;;;;;;;;5023840;28;20049;-49
2023/03/06 09:44:57;;;;;;;50.22;13.15;;;;;;;;;;5019883;28;20548;-46
2023/03/06 09:47:48;;;;;;;43.30;13.25;;;;;;;;;;5021392;28;20703;-50
2023/03/06 09:50:29;;;;;;;51.83;16.52;;;;;;;;;;5021731;28;20152;-45
2023/03/06 09:53:02;;;;;;;37.50;13.30;;;;;;;;;;5020576;28;20124;-46
2023/03/06 09:55:35;;;;;;;40.28;13.15;;;;;;;;;;5022431;28;20037;-48
2023/03/06 09:58:10;;;;;;;36.88;12.52;;;;;;;;;;5026663;28;20084;-47
2023/03/06 10:00:40;;;;;;;51.03;15.15;;;;;;;;;;5022990;28;20095;-46
2023/03/06 10:03:28;;;;;;;34.78;12.57;;;;;;;;;;5022216;28;20801;-47
2023/03/06 10:06:02;;;;;;;38.63;13.70;;;;;;;;;;5018067;28;20052;-48
2023/03/06 10:08:58;;;;;;;33.85;13.93;;;;;;;;;;5024314;28;20033;-50
2023/03/06 10:11:31;;;;;;;38.65;13.43;;;;;;;;;;5031529;28;20033;-46
2023/03/06 10:14:15;;;;;;;38.75;12.68;;;;;;;;;;5023878;28;20045;-45
2023/03/06 10:16:41;;;;;;;48.67;14.18;;;;;;;;;;5024420;28;20050;-47
2023/03/06 10:19:12;;;;;;;52.55;15.52;;;;;;;;;;5032385;28;20040;-47
2023/03/06 10:21:45;;;;;;;38.53;13.35;;;;;;;;;;5047933;28;20037;-45
2023/03/06 10:24:37;;;;;;;46.35;15.57;;;;;;;;;;5047796;28;20032;-46
2023/03/06 10:27:09;;;;;;;42.15;15.18;;;;;;;;;;5021990;28;20032;-48
2023/03/06 10:30:13;;;;;;;35.38;13.38;;;;;;;;;;5031702;28;20072;-46
2023/03/06 10:33:06;;;;;;;;;;;;;;;;;;5023561;28;20041;-49
2023/03/06 10:35:52;;;;;;;33.63;11.60;;;;;;;;;;5020952;28;19924;-48
2023/03/06 10:38:22;;;;;;;44.40;14.70;;;;;;;;;;5022406;28;20049;-45
2023/03/06 10:40:57;;;;;;;37.20;13.98;;;;;;;;;;5029759;28;20041;-50
2023/03/06 10:43:22;;;;;;;40.83;15.35;;;;;;;;;;5007950;28;20092;-46
2023/03/06 10:45:50;;;;;;;45.47;15.07;;;;;;;;;;5016225;28;20034;-47
2023/03/06 10:48:35;;;;;;;43.67;14.88;;;;;;;;;;5024740;28;20032;-45
2023/03/06 10:51:18;;;;;;;37.70;12.93;;;;;;;;;;5021432;28;20021;-44
2023/03/06 10:53:50;;;;;;;36.83;12.93;;;;;;;;;;5018863;28;20029;-46
2023/03/06 10:56:31;;;;;;;41.13;14.38;;;;;;;;;;5019045;28;20550;-47
2023/03/06 10:59:21;;;;;;;36.42;13.48;;;;;;;;;;5021372;28;20515;-48
2023/03/06 11:01:53;;;;;;;45.72;13.93;;;;;;;;;;5023302;28;20044;-45
2023/03/06 11:04:30;;;;;;;34.40;12.75;;;;;;;;;;5020232;28;20779;-45
2023/03/06 11:07:05;;;;;;;43.50;14.80;;;;;;;;;;5017577;28;20663;-46
2023/03/06 11:09:32;;;;;;;31.48;11.25;;;;;;;;;;5018271;28;20151;-48
2023/03/06 11:12:31;;;;;;;26.85;10.75;;;;;;;;;;5023001;28;20056;-48
2023/03/06 11:15:05;;;;;;;27.58;9.13;;;;;;;;;;5019974;28;20072;-46
2023/03/06 11:17:31;;;;;;;32.97;11.50;;;;;;;;;;5023341;28;20053;-45
2023/03/06 11:20:15;;;;;;;27.35;9.02;;;;;;;;;;5023712;28;20060;-52
2023/03/06 11:22:45;;;;;;;30.80;11.27;;;;;;;;;;5024773;28;20048;-48
2023/03/06 11:25:13;;;;;;;18.95;7.95;;;;;;;;;;5024292;28;20041;-46
2023/03/06 11:27:42;;;;;;;32.47;11.00;;;;;;;;;;5025593;28;20522;-46
2023/03/06 11:30:17;;;;;;;28.92;10.32;;;;;;;;;;5024867;28;20037;-49
2023/03/06 11:32:49;;;;;;;30.70;10.90;;;;;;;;;;5024661;28;20026;-46
2023/03/06 11:35:24;;;;;;;27.42;9.60;;;;;;;;;;5032728;28;20080;-47
2023/03/06 11:38:01;;;;;;;26.02;9.73;;;;;;;;;;5018552;28;20069;-46
2023/03/06 11:40:47;;;;;;;27.90;10.27;;;;;;;;;;5024000;28;20043;-49
2023/03/06 11:43:39;;;;;;;25.05;9.57;;;;;;;;;;5026448;28;20029;-47
2023/03/06 11:46:14;;;;;;;30.77;11.23;;;;;;;;;;5025737;28;20562;-48
2023/03/06 11:48:51;;;;;;;23.38;8.43;;;;;;;;;;5019635;28;20491;-49
2023/03/06 11:51:20;;;;;;;23.08;9.98;;;;;;;;;;5017851;28;20033;-46
2023/03/06 11:53:46;;;;;;;27.45;10.23;;;;;;;;;;5021628;28;20060;-45
2023/03/06 11:56:17;;;;;;;29.45;10.60;;;;;;;;;;5021024;28;20116;-47
2023/03/06 11:59:14;;;;;;;28.27;10.65;;;;;;;;;;5016197;28;20475;-46
2023/03/06 12:01:52;;;;;;;27.05;10.50;;;;;;;;;;5014912;28;20048;-47
2023/03/06 12:04:34;;;;;;;29.00;10.43;;;;;;;;;;5014275;28;20127;-48
2023/03/06 12:07:06;;;;;;;31.17;10.82;;;;;;;;;;5024326;28;20041;-47
2023/03/06 12:09:40;;;;;;;22.88;8.88;;;;;;;;;;5015860;28;20042;-46
2023/03/06 12:12:15;;;;;;;28.90;9.88;;;;;;;;;;5017786;28;20021;-45
2023/03/06 12:15:16;;;;;;;30.30;10.07;;;;;;;;;;5025478;28;20053;-46
2023/03/06 12:18:12;;;;;;;34.15;12.15;;;;;;;;;;5017838;28;20054;-48
2023/03/06 12:21:04;;;;;;;26.67;10.43;;;;;;;;;;5021059;28;20519;-46
2023/03/06 12:23:54;;;;;;;34.53;12.00;;;;;;;;;;5020262;28;20130;-46
2023/03/06 12:26:37;;;;;;;25.15;10.77;;;;;;;;;;5020910;28;20036;-46
2023/03/06 12:29:40;;;;;;;29.48;12.00;;;;;;;;;;5018880;28;20053;-45
2023/03/06 12:32:13;;;;;;;23.85;10.27;;;;;;;;;;5008876;28;20045;-44
2023/03/06 12:35:07;;;;;;;24.88;10.23;;;;;;;;;;5017104;28;20458;-44
2023/03/06 12:37:57;;;;;;;34.45;12.70;;;;;;;;;;5019212;28;20052;-45
2023/03/06 12:40:47;;;;;;;30.58;11.23;;;;;;;;;;5018348;28;20052;-45
2023/03/06 12:43:31;;;;;;;27.70;10.50;;;;;;;;;;5021288;28;20038;-47
2023/03/06 12:46:10;;;;;;;35.55;13.13;;;;;;;;;;5018832;28;20073;-46
2023/03/06 12:48:37;;;;;;;24.10;9.65;;;;;;;;;;5019734;28;20549;-45
2023/03/06 12:51:06;;;;;;;27.55;10.10;;;;;;;;;;5024624;28;20032;-45
2023/03/06 12:53:33;;;;;;;30.75;11.00;;;;;;;;;;5025275;28;20057;-45
2023/03/06 12:56:01;;;;;;;37.17;12.10;;;;;;;;;;5024798;28;20037;-49
2023/03/06 12:58:29;;;;;;;24.63;9.45;;;;;;;;;;5020880;28;20045;-56
2023/03/06 13:01:10;;;;;;;25.70;9.65;;;;;;;;;;5023791;28;20033;-53
2023/03/06 13:04:21;;;;;;;29.90;10.98;;;;;;;;;;5031652;28;20034;-54
2023/03/06 13:07:11;;;;;;;23.70;9.50;;;;;;;;;;5022950;28;20025;-56
2023/03/06 13:10:01;;;;;;;29.08;10.75;;;;;;;;;;5021959;28;20037;-49
2023/03/06 13:12:45;;;;;;;30.42;10.60;;;;;;;;;;5027090;28;20651;-48
2023/03/06 13:16:03;;;;;;;23.27;9.13;;;;;;;;;;5018597;28;20036;-48
2023/03/06 13:18:31;;;;;;;20.58;7.85;;;;;;;;;;5018152;28;20494;-47
2023/03/06 13:20:56;;;;;;;24.08;9.38;;;;;;;;;;5018854;28;20021;-52
2023/03/06 13:23:28;;;;;;;24.30;9.48;;;;;;;;;;5011550;28;20064;-49
2023/03/06 13:25:54;;;;;;;28.55;10.73;;;;;;;;;;5011093;28;20694;-47
2023/03/06 13:28:48;;;;;;;22.00;8.75;;;;;;;;;;5010090;28;20518;-48
2023/03/06 13:31:36;;;;;;;;;;;;;;;;;;4997084;28;20041;-47
2023/03/06 13:34:31;;;;;;;28.45;14.98;;;;;;;;;;4958584;28;20333;-49
2023/03/06 13:37:24;;;;;;;26.27;10.52;;;;;;;;;;4985910;28;20051;-48
2023/03/06 13:39:52;;;;;;;21.40;9.30;;;;;;;;;;5022924;28;20046;-48
2023/03/06 13:42:35;;;;;;;24.02;9.52;;;;;;;;;;5009396;28;20168;-51
2023/03/06 13:45:22;;;;;;;25.50;9.25;;;;;;;;;;5006932;28;20029;-49
2023/03/06 13:47:52;;;;;;;24.80;9.27;;;;;;;;;;5012052;28;20100;-47
2023/03/06 13:50:47;;;;;;;23.73;10.20;;;;;;;;;;5024096;28;20041;-51
2023/03/06 13:53:51;;;;;;;20.75;8.32;;;;;;;;;;5021448;28;20160;-48
2023/03/06 13:56:32;;;;;;;;;;;;;;;;;;5020632;28;20074;-49
2023/03/06 13:59:16;;;;;;;24.40;9.63;;;;;;;;;;5012177;28;19925;-48
2023/03/06 14:01:57;;;;;;;25.95;10.15;;;;;;;;;;5010414;28;20038;-48
2023/03/06 14:04:31;;;;;;;27.10;8.80;;;;;;;;;;5010027;28;20396;-50
2023/03/06 14:07:21;;;;;;;19.55;8.07;;;;;;;;;;5010613;28;20030;-49
2023/03/06 14:09:58;;;;;;;16.20;7.40;;;;;;;;;;5031845;28;20038;-49
2023/03/06 14:12:29;;;;;;;22.48;7.68;;;;;;;;;;5017880;28;20123;-49
2023/03/06 14:14:58;;;;;;;25.15;9.68;;;;;;;;;;5015427;28;20032;-52
2023/03/06 14:17:57;;;;;;;34.80;9.60;;;;;;;;;;5022468;28;20042;-48
2023/03/06 14:20:31;;;;;;;23.23;7.57;;;;;;;;;;5015270;28;20591;-47
2023/03/06 14:23:28;;;;;;;17.73;6.45;;;;;;;;;;5023344;28;20084;-51
2023/03/06 14:26:16;;;;;;;20.77;7.93;;;;;;;;;;5019425;28;20037;-47
2023/03/06 14:29:01;;;;;;;21.02;6.93;;;;;;;;;;5001072;28;20100;-49
2023/03/06 14:31:36;;;;;;;18.05;7.43;;;;;;;;;;5011902;28;20045;-49
2023/03/06 14:34:07;;;;;;;21.48;7.13;;;;;;;;;;5018917;28;20083;-49
2023/03/06 14:36:46;;;;;;;10.27;4.93;;;;;;;;;;5024395;28;20033;-47
2023/03/06 14:39:19;;;;;;;21.70;8.23;;;;;;;;;;5019552;28;20495;-49
2023/03/06 14:41:45;;;;;;;21.23;8.40;;;;;;;;;;5010119;28;20124;-49